sensor_id;sensor_type;location;lat;lon;timestamp;temperature;humidity
66752;SHT31;53663;42.676;23.238;2024-03-02T00:00:23;7.16;81.73
66752;SHT31;53663;42.676;23.238;2024-03-02T00:02:50;7.22;81.68
66752;SHT31;53663;42.676;23.238;2024-03-02T00:05:18;7.27;81.56
66752;SHT31;53663;42.676;23.238;2024-03-02T00:07:46;7.26;81.63
66752;SHT31;53663;42.676;23.238;2024-03-02T00:10:16;7.22;81.84
66752;SHT31;53663;42.676;23.238;2024-03-02T00:12:45;7.25;81.87
66752;SHT31;53663;42.676;23.238;2024-03-02T00:15:35;7.20;82.12
66752;SHT31;53663;42.676;23.238;2024-03-02T00:18:05;7.20;81.77
66752;SHT31;53663;42.676;23.238;2024-03-02T00:20:31;7.26;81.23
66752;SHT31;53663;42.676;23.238;2024-03-02T00:23:03;7.14;81.29
66752;SHT31;53663;42.676;23.238;2024-03-02T00:25:57;7.18;81.39
66752;SHT31;53663;42.676;23.238;2024-03-02T00:28:31;7.14;81.78
66752;SHT31;53663;42.676;23.238;2024-03-02T00:31:08;7.15;81.68
66752;SHT31;53663;42.676;23.238;2024-03-02T00:33:36;7.19;81.79
66752;SHT31;53663;42.676;23.238;2024-03-02T00:36:02;7.20;81.57
66752;SHT31;53663;42.676;23.238;2024-03-02T00:38:29;7.27;81.30
66752;SHT31;53663;42.676;23.238;2024-03-02T00:40:56;7.23;81.26
66752;SHT31;53663;42.676;23.238;2024-03-02T00:43:39;7.26;81.53
66752;SHT31;53663;42.676;23.238;2024-03-02T00:46:05;7.25;81.51
66752;SHT31;53663;42.676;23.238;2024-03-02T00:48:30;7.27;81.66
66752;SHT31;53663;42.676;23.238;2024-03-02T00:51:05;7.33;81.57
66752;SHT31;53663;42.676;23.238;2024-03-02T00:53:31;7.29;81.86
66752;SHT31;53663;42.676;23.238;2024-03-02T00:56:01;7.29;82.00
66752;SHT31;53663;42.676;23.238;2024-03-02T00:58:26;7.25;82.10
66752;SHT31;53663;42.676;23.238;2024-03-02T01:00:52;7.26;82.03
66752;SHT31;53663;42.676;23.238;2024-03-02T01:03:17;7.22;82.55
66752;SHT31;53663;42.676;23.238;2024-03-02T01:05:44;7.22;83.04
66752;SHT31;53663;42.676;23.238;2024-03-02T01:08:10;7.09;83.10
66752;SHT31;53663;42.676;23.238;2024-03-02T01:10:36;7.16;83.17
66752;SHT31;53663;42.676;23.238;2024-03-02T01:13:02;7.26;82.89
66752;SHT31;53663;42.676;23.238;2024-03-02T01:15:27;7.32;82.80
66752;SHT31;53663;42.676;23.238;2024-03-02T01:17:53;7.33;82.51
66752;SHT31;53663;42.676;23.238;2024-03-02T01:20:18;7.19;83.18
66752;SHT31;53663;42.676;23.238;2024-03-02T01:22:44;7.06;83.75
66752;SHT31;53663;42.676;23.238;2024-03-02T01:25:10;7.05;84.14
66752;SHT31;53663;42.676;23.238;2024-03-02T01:27:35;7.15;84.06
66752;SHT31;53663;42.676;23.238;2024-03-02T01:30:01;7.25;83.94
66752;SHT31;53663;42.676;23.238;2024-03-02T01:32:26;7.46;83.59
66752;SHT31;53663;42.676;23.238;2024-03-02T01:34:52;7.54;83.19
66752;SHT31;53663;42.676;23.238;2024-03-02T01:37:17;7.60;83.02
66752;SHT31;53663;42.676;23.238;2024-03-02T01:39:43;7.73;83.08
66752;SHT31;53663;42.676;23.238;2024-03-02T01:42:09;7.81;82.75
66752;SHT31;53663;42.676;23.238;2024-03-02T01:44:36;7.85;82.39
66752;SHT31;53663;42.676;23.238;2024-03-02T01:47:01;7.94;82.22
66752;SHT31;53663;42.676;23.238;2024-03-02T01:49:27;8.04;81.94
66752;SHT31;53663;42.676;23.238;2024-03-02T01:51:52;8.04;81.25
66752;SHT31;53663;42.676;23.238;2024-03-02T01:54:18;8.01;81.38
66752;SHT31;53663;42.676;23.238;2024-03-02T01:56:44;8.02;81.42
66752;SHT31;53663;42.676;23.238;2024-03-02T01:59:11;7.88;81.84
66752;SHT31;53663;42.676;23.238;2024-03-02T02:01:39;7.81;81.82
66752;SHT31;53663;42.676;23.238;2024-03-02T02:04:04;7.81;81.88
66752;SHT31;53663;42.676;23.238;2024-03-02T02:06:32;7.91;81.83
66752;SHT31;53663;42.676;23.238;2024-03-02T02:08:57;7.84;81.98
66752;SHT31;53663;42.676;23.238;2024-03-02T02:11:23;7.90;82.37
66752;SHT31;53663;42.676;23.238;2024-03-02T02:13:49;7.98;81.76
66752;SHT31;53663;42.676;23.238;2024-03-02T02:16:15;7.81;82.21
66752;SHT31;53663;42.676;23.238;2024-03-02T02:18:40;7.85;82.53
66752;SHT31;53663;42.676;23.238;2024-03-02T02:21:06;7.88;82.37
66752;SHT31;53663;42.676;23.238;2024-03-02T02:23:31;7.91;82.26
66752;SHT31;53663;42.676;23.238;2024-03-02T02:25:57;7.93;82.47
66752;SHT31;53663;42.676;23.238;2024-03-02T02:28:22;7.94;82.26
66752;SHT31;53663;42.676;23.238;2024-03-02T02:30:48;7.91;82.52
66752;SHT31;53663;42.676;23.238;2024-03-02T02:33:13;7.90;82.57
66752;SHT31;53663;42.676;23.238;2024-03-02T02:35:39;7.90;82.54
66752;SHT31;53663;42.676;23.238;2024-03-02T02:38:04;7.95;82.75
66752;SHT31;53663;42.676;23.238;2024-03-02T02:40:30;8.02;82.48
66752;SHT31;53663;42.676;23.238;2024-03-02T02:42:57;7.98;82.36
66752;SHT31;53663;42.676;23.238;2024-03-02T02:45:23;8.01;82.36
66752;SHT31;53663;42.676;23.238;2024-03-02T02:47:48;8.01;82.56
66752;SHT31;53663;42.676;23.238;2024-03-02T02:50:14;8.04;82.13
66752;SHT31;53663;42.676;23.238;2024-03-02T02:52:41;8.06;81.93
66752;SHT31;53663;42.676;23.238;2024-03-02T02:55:11;8.08;81.93
66752;SHT31;53663;42.676;23.238;2024-03-02T02:57:38;8.09;81.82
66752;SHT31;53663;42.676;23.238;2024-03-02T03:00:09;8.12;81.76
66752;SHT31;53663;42.676;23.238;2024-03-02T03:02:42;8.15;81.61
66752;SHT31;53663;42.676;23.238;2024-03-02T03:05:12;8.09;81.68
66752;SHT31;53663;42.676;23.238;2024-03-02T03:07:42;8.12;81.50
66752;SHT31;53663;42.676;23.238;2024-03-02T03:10:10;8.15;81.39
66752;SHT31;53663;42.676;23.238;2024-03-02T03:12:36;8.14;81.75
66752;SHT31;53663;42.676;23.238;2024-03-02T03:15:02;8.18;81.67
66752;SHT31;53663;42.676;23.238;2024-03-02T03:17:29;8.15;81.53
66752;SHT31;53663;42.676;23.238;2024-03-02T03:19:55;8.11;81.66
66752;SHT31;53663;42.676;23.238;2024-03-02T03:22:21;8.11;81.90
66752;SHT31;53663;42.676;23.238;2024-03-02T03:24:46;8.16;81.71
66752;SHT31;53663;42.676;23.238;2024-03-02T03:27:12;8.18;81.86
66752;SHT31;53663;42.676;23.238;2024-03-02T03:29:39;8.25;81.85
66752;SHT31;53663;42.676;23.238;2024-03-02T03:32:05;8.24;81.67
66752;SHT31;53663;42.676;23.238;2024-03-02T03:34:35;8.18;81.87
66752;SHT31;53663;42.676;23.238;2024-03-02T03:37:00;8.08;82.15
66752;SHT31;53663;42.676;23.238;2024-03-02T03:39:26;7.93;82.54
66752;SHT31;53663;42.676;23.238;2024-03-02T03:41:52;7.99;82.48
66752;SHT31;53663;42.676;23.238;2024-03-02T03:44:17;8.05;82.80
66752;SHT31;53663;42.676;23.238;2024-03-02T03:46:43;8.02;82.73
66752;SHT31;53663;42.676;23.238;2024-03-02T03:49:08;7.95;82.89
66752;SHT31;53663;42.676;23.238;2024-03-02T03:51:34;7.94;83.29
66752;SHT31;53663;42.676;23.238;2024-03-02T03:54:00;7.95;83.05
66752;SHT31;53663;42.676;23.238;2024-03-02T03:56:26;7.97;82.85
66752;SHT31;53663;42.676;23.238;2024-03-02T03:58:52;7.95;83.04
66752;SHT31;53663;42.676;23.238;2024-03-02T04:01:18;8.02;83.14
66752;SHT31;53663;42.676;23.238;2024-03-02T04:03:43;7.98;83.08
66752;SHT31;53663;42.676;23.238;2024-03-02T04:06:09;7.94;83.09
66752;SHT31;53663;42.676;23.238;2024-03-02T04:08:34;7.95;83.28
66752;SHT31;53663;42.676;23.238;2024-03-02T04:11:00;7.98;83.38
66752;SHT31;53663;42.676;23.238;2024-03-02T04:13:25;8.02;83.22
66752;SHT31;53663;42.676;23.238;2024-03-02T04:15:51;8.08;83.34
66752;SHT31;53663;42.676;23.238;2024-03-02T04:18:16;8.09;83.24
66752;SHT31;53663;42.676;23.238;2024-03-02T04:20:42;8.04;83.26
66752;SHT31;53663;42.676;23.238;2024-03-02T04:23:07;8.02;83.38
66752;SHT31;53663;42.676;23.238;2024-03-02T04:25:33;8.01;83.29
66752;SHT31;53663;42.676;23.238;2024-03-02T04:27:59;7.99;83.56
66752;SHT31;53663;42.676;23.238;2024-03-02T04:30:25;7.99;83.39
66752;SHT31;53663;42.676;23.238;2024-03-02T04:32:50;7.91;83.52
66752;SHT31;53663;42.676;23.238;2024-03-02T04:35:16;7.91;83.75
66752;SHT31;53663;42.676;23.238;2024-03-02T04:37:42;7.91;83.75
66752;SHT31;53663;42.676;23.238;2024-03-02T04:40:08;7.91;83.80
66752;SHT31;53663;42.676;23.238;2024-03-02T04:42:34;7.93;83.82
66752;SHT31;53663;42.676;23.238;2024-03-02T04:45:00;7.94;84.05
66752;SHT31;53663;42.676;23.238;2024-03-02T04:47:26;7.93;84.29
66752;SHT31;53663;42.676;23.238;2024-03-02T04:49:51;7.97;84.25
66752;SHT31;53663;42.676;23.238;2024-03-02T04:52:17;7.98;84.11
66752;SHT31;53663;42.676;23.238;2024-03-02T04:54:43;7.94;84.05
66752;SHT31;53663;42.676;23.238;2024-03-02T04:57:27;8.01;83.97
66752;SHT31;53663;42.676;23.238;2024-03-02T04:59:52;8.01;84.00
66752;SHT31;53663;42.676;23.238;2024-03-02T05:02:18;8.06;84.20
66752;SHT31;53663;42.676;23.238;2024-03-02T05:04:43;8.04;84.15
66752;SHT31;53663;42.676;23.238;2024-03-02T05:07:09;8.05;84.06
66752;SHT31;53663;42.676;23.238;2024-03-02T05:09:35;8.11;84.02
66752;SHT31;53663;42.676;23.238;2024-03-02T05:12:00;7.88;84.46
66752;SHT31;53663;42.676;23.238;2024-03-02T05:14:45;7.88;84.71
66752;SHT31;53663;42.676;23.238;2024-03-02T05:17:11;7.95;84.46
66752;SHT31;53663;42.676;23.238;2024-03-02T05:19:37;8.02;84.49
66752;SHT31;53663;42.676;23.238;2024-03-02T05:22:03;8.04;84.54
66752;SHT31;53663;42.676;23.238;2024-03-02T05:24:29;8.05;84.32
66752;SHT31;53663;42.676;23.238;2024-03-02T05:26:54;8.05;84.17
66752;SHT31;53663;42.676;23.238;2024-03-02T05:29:20;7.94;84.60
66752;SHT31;53663;42.676;23.238;2024-03-02T05:31:46;7.93;84.85
66752;SHT31;53663;42.676;23.238;2024-03-02T05:34:11;8.02;84.83
66752;SHT31;53663;42.676;23.238;2024-03-02T05:36:37;7.90;85.10
66752;SHT31;53663;42.676;23.238;2024-03-02T05:39:05;7.91;84.86
66752;SHT31;53663;42.676;23.238;2024-03-02T05:41:32;7.93;84.92
66752;SHT31;53663;42.676;23.238;2024-03-02T05:43:58;7.99;84.84
66752;SHT31;53663;42.676;23.238;2024-03-02T05:46:23;8.02;84.48
66752;SHT31;53663;42.676;23.238;2024-03-02T05:48:49;7.95;84.87
66752;SHT31;53663;42.676;23.238;2024-03-02T05:51:14;7.94;85.23
66752;SHT31;53663;42.676;23.238;2024-03-02T05:53:40;7.99;85.12
66752;SHT31;53663;42.676;23.238;2024-03-02T05:56:05;8.04;85.02
66752;SHT31;53663;42.676;23.238;2024-03-02T05:58:31;8.05;84.87
66752;SHT31;53663;42.676;23.238;2024-03-02T06:01:15;8.05;84.85
66752;SHT31;53663;42.676;23.238;2024-03-02T06:03:43;8.02;84.94
66752;SHT31;53663;42.676;23.238;2024-03-02T06:06:09;8.04;85.25
66752;SHT31;53663;42.676;23.238;2024-03-02T06:08:34;8.01;85.46
66752;SHT31;53663;42.676;23.238;2024-03-02T06:11:00;8.02;85.26
66752;SHT31;53663;42.676;23.238;2024-03-02T06:13:26;8.11;85.01
66752;SHT31;53663;42.676;23.238;2024-03-02T06:15:52;8.06;85.16
66752;SHT31;53663;42.676;23.238;2024-03-02T06:18:17;8.04;85.23
66752;SHT31;53663;42.676;23.238;2024-03-02T06:20:43;8.08;85.42
66752;SHT31;53663;42.676;23.238;2024-03-02T06:23:08;8.09;85.53
66752;SHT31;53663;42.676;23.238;2024-03-02T06:25:34;8.22;85.04
66752;SHT31;53663;42.676;23.238;2024-03-02T06:28:00;8.22;84.99
66752;SHT31;53663;42.676;23.238;2024-03-02T06:30:25;8.29;84.82
66752;SHT31;53663;42.676;23.238;2024-03-02T06:32:51;8.41;84.56
66752;SHT31;53663;42.676;23.238;2024-03-02T06:35:16;8.45;84.45
66752;SHT31;53663;42.676;23.238;2024-03-02T06:37:42;8.45;84.44
66752;SHT31;53663;42.676;23.238;2024-03-02T06:40:08;8.45;84.35
66752;SHT31;53663;42.676;23.238;2024-03-02T06:42:34;8.45;83.94
66752;SHT31;53663;42.676;23.238;2024-03-02T06:45:00;8.32;84.41
66752;SHT31;53663;42.676;23.238;2024-03-02T06:47:26;8.18;85.06
66752;SHT31;53663;42.676;23.238;2024-03-02T06:49:52;8.22;85.29
66752;SHT31;53663;42.676;23.238;2024-03-02T06:52:18;8.31;84.71
66752;SHT31;53663;42.676;23.238;2024-03-02T06:54:45;8.33;84.74
66752;SHT31;53663;42.676;23.238;2024-03-02T06:57:11;8.31;84.77
66752;SHT31;53663;42.676;23.238;2024-03-02T06:59:36;8.29;84.71
66752;SHT31;53663;42.676;23.238;2024-03-02T07:02:02;8.35;84.86
66752;SHT31;53663;42.676;23.238;2024-03-02T07:04:27;8.39;84.76
66752;SHT31;53663;42.676;23.238;2024-03-02T07:06:53;8.35;84.99
66752;SHT31;53663;42.676;23.238;2024-03-02T07:09:18;8.28;84.95
66752;SHT31;53663;42.676;23.238;2024-03-02T07:11:48;8.35;84.98
66752;SHT31;53663;42.676;23.238;2024-03-02T07:14:13;8.33;84.57
66752;SHT31;53663;42.676;23.238;2024-03-02T07:16:39;8.45;83.89
66752;SHT31;53663;42.676;23.238;2024-03-02T07:19:06;8.54;83.50
66752;SHT31;53663;42.676;23.238;2024-03-02T07:21:31;8.50;83.55
66752;SHT31;53663;42.676;23.238;2024-03-02T07:23:58;8.29;83.85
66752;SHT31;53663;42.676;23.238;2024-03-02T07:26:24;8.24;84.09
66752;SHT31;53663;42.676;23.238;2024-03-02T07:28:50;8.09;84.73
66752;SHT31;53663;42.676;23.238;2024-03-02T07:31:17;7.98;85.40
66752;SHT31;53663;42.676;23.238;2024-03-02T07:33:45;7.83;85.16
66752;SHT31;53663;42.676;23.238;2024-03-02T07:36:14;7.81;85.67
66752;SHT31;53663;42.676;23.238;2024-03-02T07:38:39;7.90;85.75
66752;SHT31;53663;42.676;23.238;2024-03-02T07:41:06;8.01;85.17
66752;SHT31;53663;42.676;23.238;2024-03-02T07:43:32;8.04;84.53
66752;SHT31;53663;42.676;23.238;2024-03-02T07:46:01;7.87;84.86
66752;SHT31;53663;42.676;23.238;2024-03-02T07:48:28;7.81;85.22
66752;SHT31;53663;42.676;23.238;2024-03-02T07:50:53;7.77;85.06
66752;SHT31;53663;42.676;23.238;2024-03-02T07:53:19;7.90;85.32
66752;SHT31;53663;42.676;23.238;2024-03-02T07:55:44;8.04;85.58
66752;SHT31;53663;42.676;23.238;2024-03-02T07:58:10;8.06;86.30
66752;SHT31;53663;42.676;23.238;2024-03-02T08:00:39;8.02;85.81
66752;SHT31;53663;42.676;23.238;2024-03-02T08:03:05;7.97;85.84
66752;SHT31;53663;42.676;23.238;2024-03-02T08:05:30;7.90;86.03
66752;SHT31;53663;42.676;23.238;2024-03-02T08:07:56;7.90;86.14
66752;SHT31;53663;42.676;23.238;2024-03-02T08:10:21;7.93;86.24
66752;SHT31;53663;42.676;23.238;2024-03-02T08:12:47;7.90;86.39
66752;SHT31;53663;42.676;23.238;2024-03-02T08:15:12;8.01;86.92
66752;SHT31;53663;42.676;23.238;2024-03-02T08:17:39;8.01;87.10
66752;SHT31;53663;42.676;23.238;2024-03-02T08:20:11;8.05;87.10
66752;SHT31;53663;42.676;23.238;2024-03-02T08:22:38;8.06;87.00
66752;SHT31;53663;42.676;23.238;2024-03-02T08:25:04;8.22;86.27
66752;SHT31;53663;42.676;23.238;2024-03-02T08:27:30;8.26;86.14
66752;SHT31;53663;42.676;23.238;2024-03-02T08:29:57;8.35;85.85
66752;SHT31;53663;42.676;23.238;2024-03-02T08:32:23;8.24;85.58
66752;SHT31;53663;42.676;23.238;2024-03-02T08:34:48;8.18;86.26
66752;SHT31;53663;42.676;23.238;2024-03-02T08:37:14;8.32;85.81
66752;SHT31;53663;42.676;23.238;2024-03-02T08:39:39;8.31;86.21
66752;SHT31;53663;42.676;23.238;2024-03-02T08:42:05;8.29;85.75
66752;SHT31;53663;42.676;23.238;2024-03-02T08:44:30;8.28;85.78
66752;SHT31;53663;42.676;23.238;2024-03-02T08:46:56;8.38;85.77
66752;SHT31;53663;42.676;23.238;2024-03-02T08:49:22;8.32;85.92
66752;SHT31;53663;42.676;23.238;2024-03-02T08:51:47;8.48;85.54
66752;SHT31;53663;42.676;23.238;2024-03-02T08:54:22;8.50;85.21
66752;SHT31;53663;42.676;23.238;2024-03-02T08:56:49;8.49;85.13
66752;SHT31;53663;42.676;23.238;2024-03-02T08:59:15;8.50;85.25
66752;SHT31;53663;42.676;23.238;2024-03-02T09:01:41;8.67;85.08
66752;SHT31;53663;42.676;23.238;2024-03-02T09:04:07;8.59;84.63
66752;SHT31;53663;42.676;23.238;2024-03-02T09:06:36;8.76;83.83
66752;SHT31;53663;42.676;23.238;2024-03-02T09:09:01;8.94;83.16
66752;SHT31;53663;42.676;23.238;2024-03-02T09:11:27;8.90;83.32
66752;SHT31;53663;42.676;23.238;2024-03-02T09:13:52;9.08;83.26
66752;SHT31;53663;42.676;23.238;2024-03-02T09:16:19;9.28;82.67
66752;SHT31;53663;42.676;23.238;2024-03-02T09:18:44;9.25;82.36
66752;SHT31;53663;42.676;23.238;2024-03-02T09:21:10;9.36;82.28
66752;SHT31;53663;42.676;23.238;2024-03-02T09:23:35;9.18;82.64
66752;SHT31;53663;42.676;23.238;2024-03-02T09:26:01;9.43;82.61
66752;SHT31;53663;42.676;23.238;2024-03-02T09:28:27;9.14;81.94
66752;SHT31;53663;42.676;23.238;2024-03-02T09:30:52;9.34;80.54
66752;SHT31;53663;42.676;23.238;2024-03-02T09:33:18;9.36;80.14
66752;SHT31;53663;42.676;23.238;2024-03-02T09:35:43;9.00;80.46
66752;SHT31;53663;42.676;23.238;2024-03-02T09:38:09;9.08;81.13
66752;SHT31;53663;42.676;23.238;2024-03-02T09:40:34;9.43;81.06
66752;SHT31;53663;42.676;23.238;2024-03-02T09:43:00;9.60;81.16
66752;SHT31;53663;42.676;23.238;2024-03-02T09:45:27;9.70;80.04
66752;SHT31;53663;42.676;23.238;2024-03-02T09:47:52;9.78;79.38
66752;SHT31;53663;42.676;23.238;2024-03-02T09:50:18;9.80;79.71
66752;SHT31;53663;42.676;23.238;2024-03-02T09:52:44;9.89;78.91
66752;SHT31;53663;42.676;23.238;2024-03-02T09:55:13;9.93;78.44
66752;SHT31;53663;42.676;23.238;2024-03-02T09:57:39;10.04;78.06
66752;SHT31;53663;42.676;23.238;2024-03-02T10:00:08;9.94;78.84
66752;SHT31;53663;42.676;23.238;2024-03-02T10:02:33;9.85;79.21
66752;SHT31;53663;42.676;23.238;2024-03-02T10:04:59;9.91;79.13
66752;SHT31;53663;42.676;23.238;2024-03-02T10:07:25;10.00;79.12
66752;SHT31;53663;42.676;23.238;2024-03-02T10:09:50;10.03;79.49
66752;SHT31;53663;42.676;23.238;2024-03-02T10:12:18;10.07;80.00
66752;SHT31;53663;42.676;23.238;2024-03-02T10:14:44;10.07;80.06
66752;SHT31;53663;42.676;23.238;2024-03-02T10:17:11;9.97;80.27
66752;SHT31;53663;42.676;23.238;2024-03-02T10:19:38;10.00;80.80
66752;SHT31;53663;42.676;23.238;2024-03-02T10:22:08;10.07;80.08
66752;SHT31;53663;42.676;23.238;2024-03-02T10:24:39;10.25;79.96
66752;SHT31;53663;42.676;23.238;2024-03-02T10:27:31;10.28;80.31
66752;SHT31;53663;42.676;23.238;2024-03-02T10:29:59;10.11;80.86
66752;SHT31;53663;42.676;23.238;2024-03-02T10:32:27;10.16;81.07
66752;SHT31;53663;42.676;23.238;2024-03-02T10:34:54;10.25;80.49
66752;SHT31;53663;42.676;23.238;2024-03-02T10:37:20;10.36;80.05
66752;SHT31;53663;42.676;23.238;2024-03-02T10:39:47;10.25;80.07
66752;SHT31;53663;42.676;23.238;2024-03-02T10:42:14;10.30;79.85
66752;SHT31;53663;42.676;23.238;2024-03-02T10:44:41;10.28;80.13
66752;SHT31;53663;42.676;23.238;2024-03-02T10:47:08;9.76;80.83
66752;SHT31;53663;42.676;23.238;2024-03-02T10:49:34;9.55;81.58
66752;SHT31;53663;42.676;23.238;2024-03-02T10:52:00;9.58;81.64
66752;SHT31;53663;42.676;23.238;2024-03-02T10:54:26;9.65;81.66
66752;SHT31;53663;42.676;23.238;2024-03-02T10:56:55;9.80;81.74
66752;SHT31;53663;42.676;23.238;2024-03-02T10:59:33;9.89;81.72
66752;SHT31;53663;42.676;23.238;2024-03-02T11:02:01;9.96;81.33
66752;SHT31;53663;42.676;23.238;2024-03-02T11:04:27;10.08;81.28
66752;SHT31;53663;42.676;23.238;2024-03-02T11:07:06;10.08;81.18
66752;SHT31;53663;42.676;23.238;2024-03-02T11:09:34;10.16;81.20
66752;SHT31;53663;42.676;23.238;2024-03-02T11:12:12;10.21;80.81
66752;SHT31;53663;42.676;23.238;2024-03-02T11:14:40;10.03;81.18
66752;SHT31;53663;42.676;23.238;2024-03-02T11:17:09;10.24;80.95
66752;SHT31;53663;42.676;23.238;2024-03-02T11:19:38;10.20;80.92
66752;SHT31;53663;42.676;23.238;2024-03-02T11:22:04;10.27;81.09
66752;SHT31;53663;42.676;23.238;2024-03-02T11:24:31;10.37;80.91
66752;SHT31;53663;42.676;23.238;2024-03-02T11:26:59;10.47;80.72
66752;SHT31;53663;42.676;23.238;2024-03-02T11:32:21;10.20;80.69
66752;SHT31;53663;42.676;23.238;2024-03-02T11:34:50;10.34;80.36
66752;SHT31;53663;42.676;23.238;2024-03-02T11:37:17;10.48;79.60
66752;SHT31;53663;42.676;23.238;2024-03-02T11:39:49;10.36;80.23
66752;SHT31;53663;42.676;23.238;2024-03-02T11:42:15;10.51;79.76
66752;SHT31;53663;42.676;23.238;2024-03-02T11:44:47;10.49;79.56
66752;SHT31;53663;42.676;23.238;2024-03-02T11:47:17;10.48;79.98
66752;SHT31;53663;42.676;23.238;2024-03-02T11:49:50;10.40;80.42
66752;SHT31;53663;42.676;23.238;2024-03-02T11:52:20;10.24;80.53
66752;SHT31;53663;42.676;23.238;2024-03-02T11:54:47;10.25;80.39
66752;SHT31;53663;42.676;23.238;2024-03-02T11:57:23;10.13;80.38
66752;SHT31;53663;42.676;23.238;2024-03-02T11:59:49;9.99;81.14
66752;SHT31;53663;42.676;23.238;2024-03-02T12:02:17;9.86;82.40
66752;SHT31;53663;42.676;23.238;2024-03-02T12:04:44;9.89;81.95
66752;SHT31;53663;42.676;23.238;2024-03-02T12:07:10;9.90;81.97
66752;SHT31;53663;42.676;23.238;2024-03-02T12:09:36;9.94;81.80
66752;SHT31;53663;42.676;23.238;2024-03-02T12:14:32;10.01;82.23
66752;SHT31;53663;42.676;23.238;2024-03-02T12:16:59;10.06;81.48
66752;SHT31;53663;42.676;23.238;2024-03-02T12:19:26;10.08;80.98
66752;SHT31;53663;42.676;23.238;2024-03-02T12:21:53;10.04;81.05
66752;SHT31;53663;42.676;23.238;2024-03-02T12:24:21;10.22;80.79
66752;SHT31;53663;42.676;23.238;2024-03-02T12:26:47;10.40;80.16
66752;SHT31;53663;42.676;23.238;2024-03-02T12:29:13;10.52;79.85
66752;SHT31;53663;42.676;23.238;2024-03-02T12:31:41;10.55;79.30
66752;SHT31;53663;42.676;23.238;2024-03-02T12:34:07;10.64;77.85
66752;SHT31;53663;42.676;23.238;2024-03-02T12:36:39;10.55;77.81
66752;SHT31;53663;42.676;23.238;2024-03-02T12:39:10;10.52;77.70
66752;SHT31;53663;42.676;23.238;2024-03-02T12:41:36;10.58;77.52
66752;SHT31;53663;42.676;23.238;2024-03-02T12:44:05;10.61;77.36
66752;SHT31;53663;42.676;23.238;2024-03-02T12:46:32;10.40;78.68
66752;SHT31;53663;42.676;23.238;2024-03-02T12:48:58;10.49;78.42
66752;SHT31;53663;42.676;23.238;2024-03-02T12:51:24;10.48;78.05
66752;SHT31;53663;42.676;23.238;2024-03-02T12:53:54;10.37;78.54
66752;SHT31;53663;42.676;23.238;2024-03-02T12:56:21;10.30;78.52
66752;SHT31;53663;42.676;23.238;2024-03-02T12:58:46;10.17;78.72
66752;SHT31;53663;42.676;23.238;2024-03-02T13:01:14;10.07;79.74
66752;SHT31;53663;42.676;23.238;2024-03-02T13:03:43;10.13;80.40
66752;SHT31;53663;42.676;23.238;2024-03-02T13:06:09;10.16;79.64
66752;SHT31;53663;42.676;23.238;2024-03-02T13:08:35;10.24;78.85
66752;SHT31;53663;42.676;23.238;2024-03-02T13:11:01;10.20;78.98
66752;SHT31;53663;42.676;23.238;2024-03-02T13:13:26;10.08;79.18
66752;SHT31;53663;42.676;23.238;2024-03-02T13:15:55;9.85;80.59
66752;SHT31;53663;42.676;23.238;2024-03-02T13:18:22;9.94;80.76
66752;SHT31;53663;42.676;23.238;2024-03-02T13:20:47;9.93;80.46
66752;SHT31;53663;42.676;23.238;2024-03-02T13:23:13;9.87;80.58
66752;SHT31;53663;42.676;23.238;2024-03-02T13:25:39;9.78;80.90
66752;SHT31;53663;42.676;23.238;2024-03-02T13:28:05;9.75;81.08
66752;SHT31;53663;42.676;23.238;2024-03-02T13:30:32;9.89;80.83
66752;SHT31;53663;42.676;23.238;2024-03-02T13:32:58;9.93;81.24
66752;SHT31;53663;42.676;23.238;2024-03-02T13:35:23;10.04;80.91
66752;SHT31;53663;42.676;23.238;2024-03-02T13:37:49;10.06;80.03
66752;SHT31;53663;42.676;23.238;2024-03-02T13:40:16;10.07;80.06
66752;SHT31;53663;42.676;23.238;2024-03-02T13:42:48;10.17;79.92
66752;SHT31;53663;42.676;23.238;2024-03-02T13:45:14;10.04;80.19
66752;SHT31;53663;42.676;23.238;2024-03-02T13:47:40;10.11;80.08
66752;SHT31;53663;42.676;23.238;2024-03-02T13:50:06;10.16;79.21
66752;SHT31;53663;42.676;23.238;2024-03-02T13:52:32;10.17;79.08
66752;SHT31;53663;42.676;23.238;2024-03-02T13:54:58;10.07;79.15
66752;SHT31;53663;42.676;23.238;2024-03-02T13:57:23;10.11;79.17
66752;SHT31;53663;42.676;23.238;2024-03-02T13:59:49;10.16;79.22
66752;SHT31;53663;42.676;23.238;2024-03-02T14:02:15;10.08;78.82
66752;SHT31;53663;42.676;23.238;2024-03-02T14:04:41;10.04;79.15
66752;SHT31;53663;42.676;23.238;2024-03-02T14:07:07;10.11;79.38
66752;SHT31;53663;42.676;23.238;2024-03-02T14:09:33;10.07;79.82
66752;SHT31;53663;42.676;23.238;2024-03-02T14:11:58;10.11;80.07
66752;SHT31;53663;42.676;23.238;2024-03-02T14:14:26;10.14;80.29
66752;SHT31;53663;42.676;23.238;2024-03-02T14:16:53;10.21;79.46
66752;SHT31;53663;42.676;23.238;2024-03-02T14:19:19;10.30;79.08
66752;SHT31;53663;42.676;23.238;2024-03-02T14:21:45;10.24;79.03
66752;SHT31;53663;42.676;23.238;2024-03-02T14:24:11;10.20;79.55
66752;SHT31;53663;42.676;23.238;2024-03-02T14:26:36;10.17;80.47
66752;SHT31;53663;42.676;23.238;2024-03-02T14:29:03;10.34;79.83
66752;SHT31;53663;42.676;23.238;2024-03-02T14:31:29;10.49;79.74
66752;SHT31;53663;42.676;23.238;2024-03-02T14:33:54;10.51;79.20
66752;SHT31;53663;42.676;23.238;2024-03-02T14:36:20;10.37;79.73
66752;SHT31;53663;42.676;23.238;2024-03-02T14:38:46;10.48;79.06
66752;SHT31;53663;42.676;23.238;2024-03-02T14:41:12;10.52;78.63
66752;SHT31;53663;42.676;23.238;2024-03-02T14:43:37;10.55;78.72
66752;SHT31;53663;42.676;23.238;2024-03-02T14:46:03;10.57;78.40
66752;SHT31;53663;42.676;23.238;2024-03-02T14:48:29;10.16;78.78
66752;SHT31;53663;42.676;23.238;2024-03-02T14:50:55;10.13;79.31
66752;SHT31;53663;42.676;23.238;2024-03-02T14:53:21;10.11;79.32
66752;SHT31;53663;42.676;23.238;2024-03-02T14:55:46;10.08;79.37
66752;SHT31;53663;42.676;23.238;2024-03-02T14:58:12;10.37;78.86
66752;SHT31;53663;42.676;23.238;2024-03-02T15:00:37;10.40;78.23
66752;SHT31;53663;42.676;23.238;2024-03-02T15:03:03;10.57;77.54
66752;SHT31;53663;42.676;23.238;2024-03-02T15:05:31;10.01;78.65
66752;SHT31;53663;42.676;23.238;2024-03-02T15:07:57;9.68;80.04
66752;SHT31;53663;42.676;23.238;2024-03-02T15:10:24;9.49;81.05
66752;SHT31;53663;42.676;23.238;2024-03-02T15:12:50;9.75;80.90
66752;SHT31;53663;42.676;23.238;2024-03-02T15:15:16;9.97;80.73
66752;SHT31;53663;42.676;23.238;2024-03-02T15:17:41;9.72;80.77
66752;SHT31;53663;42.676;23.238;2024-03-02T15:20:07;9.86;80.84
66752;SHT31;53663;42.676;23.238;2024-03-02T15:22:33;9.75;80.77
66752;SHT31;53663;42.676;23.238;2024-03-02T15:24:58;9.52;81.39
66752;SHT31;53663;42.676;23.238;2024-03-02T15:27:24;9.43;82.12
66752;SHT31;53663;42.676;23.238;2024-03-02T15:29:53;9.38;82.62